sensor_id;sensor_type;location;lat;lon;timestamp;P1;durP1;ratioP1;P2;durP2;ratioP2
36351;SDS011;22382;44.768;17.206;2022-11-20T00:01:18;3.72;;;3.30;;
36351;SDS011;22382;44.768;17.206;2022-11-20T00:03:51;4.30;;;3.47;;
36351;SDS011;22382;44.768;17.206;2022-11-20T00:06:20;4.45;;;3.22;;
36351;SDS011;22382;44.768;17.206;2022-11-20T00:08:48;3.75;;;2.95;;
36351;SDS011;22382;44.768;17.206;2022-11-20T00:11:16;3.65;;;2.83;;
36351;SDS011;22382;44.768;17.206;2022-11-20T00:13:48;3.55;;;2.95;;
36351;SDS011;22382;44.768;17.206;2022-11-20T00:16:19;3.10;;;2.80;;
36351;SDS011;22382;44.768;17.206;2022-11-20T00:18:48;3.40;;;2.65;;
36351;SDS011;22382;44.768;17.206;2022-11-20T00:21:16;3.30;;;2.83;;
36351;SDS011;22382;44.768;17.206;2022-11-20T00:23:47;5.28;;;2.55;;
36351;SDS011;22382;44.768;17.206;2022-11-20T00:26:15;3.90;;;2.25;;
36351;SDS011;22382;44.768;17.206;2022-11-20T00:28:48;3.25;;;2.80;;
36351;SDS011;22382;44.768;17.206;2022-11-20T00:31:18;3.53;;;2.70;;
36351;SDS011;22382;44.768;17.206;2022-11-20T00:33:45;3.13;;;2.50;;
36351;SDS011;22382;44.768;17.206;2022-11-20T00:36:14;4.63;;;3.00;;
36351;SDS011;22382;44.768;17.206;2022-11-20T00:38:43;4.70;;;2.83;;
36351;SDS011;22382;44.768;17.206;2022-11-20T00:41:11;4.45;;;3.20;;
36351;SDS011;22382;44.768;17.206;2022-11-20T00:43:40;4.50;;;3.20;;
36351;SDS011;22382;44.768;17.206;2022-11-20T00:46:09;4.03;;;3.33;;
36351;SDS011;22382;44.768;17.206;2022-11-20T00:48:39;5.75;;;3.50;;
36351;SDS011;22382;44.768;17.206;2022-11-20T00:51:06;4.32;;;3.47;;
36351;SDS011;22382;44.768;17.206;2022-11-20T00:53:33;4.07;;;3.05;;
36351;SDS011;22382;44.768;17.206;2022-11-20T00:56:07;3.78;;;3.00;;
36351;SDS011;22382;44.768;17.206;2022-11-20T00:58:38;4.25;;;3.22;;
36351;SDS011;22382;44.768;17.206;2022-11-20T01:01:13;4.93;;;3.13;;
36351;SDS011;22382;44.768;17.206;2022-11-20T01:03:43;5.70;;;3.05;;
36351;SDS011;22382;44.768;17.206;2022-11-20T01:06:15;3.53;;;2.80;;
36351;SDS011;22382;44.768;17.206;2022-11-20T01:08:51;2.65;;;2.42;;
36351;SDS011;22382;44.768;17.206;2022-11-20T01:11:21;3.22;;;2.55;;
36351;SDS011;22382;44.768;17.206;2022-11-20T01:13:50;3.30;;;2.60;;
36351;SDS011;22382;44.768;17.206;2022-11-20T01:18:53;3.08;;;2.50;;
36351;SDS011;22382;44.768;17.206;2022-11-20T01:21:24;3.47;;;2.72;;
36351;SDS011;22382;44.768;17.206;2022-11-20T01:23:52;2.55;;;2.28;;
36351;SDS011;22382;44.768;17.206;2022-11-20T01:26:21;3.00;;;2.58;;
36351;SDS011;22382;44.768;17.206;2022-11-20T01:28:50;2.67;;;2.40;;
36351;SDS011;22382;44.768;17.206;2022-11-20T01:31:18;2.83;;;2.50;;
36351;SDS011;22382;44.768;17.206;2022-11-20T01:33:54;3.03;;;2.42;;
36351;SDS011;22382;44.768;17.206;2022-11-20T01:36:23;2.90;;;2.58;;
36351;SDS011;22382;44.768;17.206;2022-11-20T01:38:52;3.80;;;2.55;;
36351;SDS011;22382;44.768;17.206;2022-11-20T01:41:20;2.88;;;2.40;;
36351;SDS011;22382;44.768;17.206;2022-11-20T01:44:09;4.55;;;2.30;;
36351;SDS011;22382;44.768;17.206;2022-11-20T01:46:38;3.70;;;2.50;;
36351;SDS011;22382;44.768;17.206;2022-11-20T01:49:16;2.33;;;1.88;;
36351;SDS011;22382;44.768;17.206;2022-11-20T01:51:51;2.35;;;1.90;;
36351;SDS011;22382;44.768;17.206;2022-11-20T01:54:42;3.00;;;1.70;;
36351;SDS011;22382;44.768;17.206;2022-11-20T01:57:31;2.55;;;1.75;;
36351;SDS011;22382;44.768;17.206;2022-11-20T02:00:07;1.85;;;1.48;;
36351;SDS011;22382;44.768;17.206;2022-11-20T02:02:37;1.92;;;1.60;;
36351;SDS011;22382;44.768;17.206;2022-11-20T02:05:23;2.42;;;1.60;;
36351;SDS011;22382;44.768;17.206;2022-11-20T02:07:57;2.33;;;1.52;;
36351;SDS011;22382;44.768;17.206;2022-11-20T02:10:25;2.42;;;1.60;;
36351;SDS011;22382;44.768;17.206;2022-11-20T02:12:55;1.73;;;1.40;;
36351;SDS011;22382;44.768;17.206;2022-11-20T02:15:41;1.63;;;1.50;;
36351;SDS011;22382;44.768;17.206;2022-11-20T02:18:10;3.45;;;1.63;;
36351;SDS011;22382;44.768;17.206;2022-11-20T02:20:41;2.40;;;1.60;;
36351;SDS011;22382;44.768;17.206;2022-11-20T02:23:16;2.05;;;1.70;;
36351;SDS011;22382;44.768;17.206;2022-11-20T02:25:54;1.92;;;1.48;;
36351;SDS011;22382;44.768;17.206;2022-11-20T02:28:23;3.35;;;2.17;;
36351;SDS011;22382;44.768;17.206;2022-11-20T02:30:50;1.40;;;1.30;;
36351;SDS011;22382;44.768;17.206;2022-11-20T02:33:17;2.70;;;1.35;;
36351;SDS011;22382;44.768;17.206;2022-11-20T02:35:45;2.33;;;1.50;;
36351;SDS011;22382;44.768;17.206;2022-11-20T02:38:13;1.50;;;1.20;;
36351;SDS011;22382;44.768;17.206;2022-11-20T02:40:41;2.63;;;1.17;;
36351;SDS011;22382;44.768;17.206;2022-11-20T02:43:09;1.85;;;1.30;;
36351;SDS011;22382;44.768;17.206;2022-11-20T02:45:36;1.50;;;1.30;;
36351;SDS011;22382;44.768;17.206;2022-11-20T02:48:05;4.43;;;1.60;;
36351;SDS011;22382;44.768;17.206;2022-11-20T02:50:36;2.47;;;1.30;;
36351;SDS011;22382;44.768;17.206;2022-11-20T02:53:04;1.45;;;1.23;;
36351;SDS011;22382;44.768;17.206;2022-11-20T02:55:31;1.60;;;1.30;;
36351;SDS011;22382;44.768;17.206;2022-11-20T02:57:58;1.67;;;1.23;;
36351;SDS011;22382;44.768;17.206;2022-11-20T03:00:25;1.50;;;1.10;;
36351;SDS011;22382;44.768;17.206;2022-11-20T03:02:52;1.67;;;1.30;;
36351;SDS011;22382;44.768;17.206;2022-11-20T03:05:18;1.60;;;1.20;;
36351;SDS011;22382;44.768;17.206;2022-11-20T03:07:45;1.58;;;1.40;;
36351;SDS011;22382;44.768;17.206;2022-11-20T03:10:12;3.00;;;1.70;;
36351;SDS011;22382;44.768;17.206;2022-11-20T03:12:40;2.45;;;1.83;;
36351;SDS011;22382;44.768;17.206;2022-11-20T03:15:07;3.53;;;1.65;;
36351;SDS011;22382;44.768;17.206;2022-11-20T03:17:34;2.60;;;1.58;;
36351;SDS011;22382;44.768;17.206;2022-11-20T03:20:01;1.95;;;1.60;;
36351;SDS011;22382;44.768;17.206;2022-11-20T03:22:29;2.28;;;1.67;;
36351;SDS011;22382;44.768;17.206;2022-11-20T03:24:56;1.88;;;1.60;;
36351;SDS011;22382;44.768;17.206;2022-11-20T03:27:23;2.58;;;1.80;;
36351;SDS011;22382;44.768;17.206;2022-11-20T03:29:50;2.47;;;1.63;;
36351;SDS011;22382;44.768;17.206;2022-11-20T03:32:17;2.45;;;1.85;;
36351;SDS011;22382;44.768;17.206;2022-11-20T03:34:44;2.20;;;1.50;;
36351;SDS011;22382;44.768;17.206;2022-11-20T03:37:11;3.05;;;1.80;;
36351;SDS011;22382;44.768;17.206;2022-11-20T03:39:38;2.45;;;1.90;;
36351;SDS011;22382;44.768;17.206;2022-11-20T03:42:05;2.40;;;1.75;;
36351;SDS011;22382;44.768;17.206;2022-11-20T03:44:51;1.70;;;1.40;;
36351;SDS011;22382;44.768;17.206;2022-11-20T03:47:18;3.20;;;1.77;;
36351;SDS011;22382;44.768;17.206;2022-11-20T03:49:45;2.00;;;1.40;;
36351;SDS011;22382;44.768;17.206;2022-11-20T03:52:12;2.17;;;1.40;;
36351;SDS011;22382;44.768;17.206;2022-11-20T03:54:39;2.45;;;1.38;;
36351;SDS011;22382;44.768;17.206;2022-11-20T03:57:06;1.95;;;1.48;;
36351;SDS011;22382;44.768;17.206;2022-11-20T03:59:33;1.90;;;1.40;;
36351;SDS011;22382;44.768;17.206;2022-11-20T04:02:00;1.60;;;1.20;;
36351;SDS011;22382;44.768;17.206;2022-11-20T04:04:27;1.83;;;1.25;;
36351;SDS011;22382;44.768;17.206;2022-11-20T04:06:54;2.30;;;1.30;;
36351;SDS011;22382;44.768;17.206;2022-11-20T04:09:21;1.67;;;1.35;;
36351;SDS011;22382;44.768;17.206;2022-11-20T04:11:48;1.48;;;1.08;;
36351;SDS011;22382;44.768;17.206;2022-11-20T04:14:16;1.60;;;0.80;;
36351;SDS011;22382;44.768;17.206;2022-11-20T04:16:43;1.48;;;1.10;;
36351;SDS011;22382;44.768;17.206;2022-11-20T04:19:11;1.45;;;1.02;;
36351;SDS011;22382;44.768;17.206;2022-11-20T04:21:41;4.40;;;1.70;;
36351;SDS011;22382;44.768;17.206;2022-11-20T04:24:08;8.43;;;2.10;;
36351;SDS011;22382;44.768;17.206;2022-11-20T04:26:36;4.25;;;1.45;;
36351;SDS011;22382;44.768;17.206;2022-11-20T04:29:04;3.15;;;1.13;;
36351;SDS011;22382;44.768;17.206;2022-11-20T04:31:32;1.65;;;1.00;;
36351;SDS011;22382;44.768;17.206;2022-11-20T04:34:01;2.00;;;1.15;;
36351;SDS011;22382;44.768;17.206;2022-11-20T04:36:29;1.13;;;0.95;;
36351;SDS011;22382;44.768;17.206;2022-11-20T04:38:58;1.65;;;0.90;;
36351;SDS011;22382;44.768;17.206;2022-11-20T04:41:31;1.88;;;0.82;;
36351;SDS011;22382;44.768;17.206;2022-11-20T04:44:00;8.60;;;2.40;;
36351;SDS011;22382;44.768;17.206;2022-11-20T04:46:34;2.90;;;1.15;;
36351;SDS011;22382;44.768;17.206;2022-11-20T04:49:03;3.20;;;0.93;;
36351;SDS011;22382;44.768;17.206;2022-11-20T04:51:30;2.05;;;1.13;;
36351;SDS011;22382;44.768;17.206;2022-11-20T04:53:58;0.57;;;0.45;;
36351;SDS011;22382;44.768;17.206;2022-11-20T04:56:25;1.20;;;0.90;;
36351;SDS011;22382;44.768;17.206;2022-11-20T04:58:52;0.75;;;0.50;;
36351;SDS011;22382;44.768;17.206;2022-11-20T05:01:20;1.00;;;0.60;;
36351;SDS011;22382;44.768;17.206;2022-11-20T05:03:49;0.63;;;0.40;;
36351;SDS011;22382;44.768;17.206;2022-11-20T05:06:17;1.15;;;0.40;;
36351;SDS011;22382;44.768;17.206;2022-11-20T05:08:46;1.45;;;0.52;;
36351;SDS011;22382;44.768;17.206;2022-11-20T05:11:14;2.25;;;0.70;;
36351;SDS011;22382;44.768;17.206;2022-11-20T05:13:43;0.57;;;0.40;;
36351;SDS011;22382;44.768;17.206;2022-11-20T05:16:11;0.70;;;0.50;;
36351;SDS011;22382;44.768;17.206;2022-11-20T05:18:40;0.43;;;0.40;;
36351;SDS011;22382;44.768;17.206;2022-11-20T05:21:08;0.90;;;0.50;;
36351;SDS011;22382;44.768;17.206;2022-11-20T05:23:36;0.32;;;0.30;;
36351;SDS011;22382;44.768;17.206;2022-11-20T05:26:04;0.77;;;0.40;;
36351;SDS011;22382;44.768;17.206;2022-11-20T05:28:32;0.70;;;0.50;;
36351;SDS011;22382;44.768;17.206;2022-11-20T05:31:07;1.50;;;0.77;;
36351;SDS011;22382;44.768;17.206;2022-11-20T05:33:36;2.17;;;1.00;;
36351;SDS011;22382;44.768;17.206;2022-11-20T05:36:05;0.95;;;0.57;;
36351;SDS011;22382;44.768;17.206;2022-11-20T05:38:33;1.40;;;0.55;;
36351;SDS011;22382;44.768;17.206;2022-11-20T05:41:13;1.38;;;0.82;;
36351;SDS011;22382;44.768;17.206;2022-11-20T05:43:42;2.80;;;0.52;;
36351;SDS011;22382;44.768;17.206;2022-11-20T05:46:11;0.95;;;0.70;;
36351;SDS011;22382;44.768;17.206;2022-11-20T05:48:39;0.95;;;0.70;;
36351;SDS011;22382;44.768;17.206;2022-11-20T05:51:08;2.25;;;0.80;;
36351;SDS011;22382;44.768;17.206;2022-11-20T05:53:37;1.50;;;0.85;;
36351;SDS011;22382;44.768;17.206;2022-11-20T05:56:13;1.15;;;0.80;;
36351;SDS011;22382;44.768;17.206;2022-11-20T05:58:42;0.70;;;0.63;;
36351;SDS011;22382;44.768;17.206;2022-11-20T06:01:16;1.10;;;0.80;;
36351;SDS011;22382;44.768;17.206;2022-11-20T06:03:43;1.42;;;0.80;;
36351;SDS011;22382;44.768;17.206;2022-11-20T06:06:14;2.53;;;0.93;;
36351;SDS011;22382;44.768;17.206;2022-11-20T06:08:41;1.35;;;1.10;;
36351;SDS011;22382;44.768;17.206;2022-11-20T06:11:10;1.92;;;1.50;;
36351;SDS011;22382;44.768;17.206;2022-11-20T06:13:38;2.50;;;1.60;;
36351;SDS011;22382;44.768;17.206;2022-11-20T06:16:08;2.60;;;1.55;;
36351;SDS011;22382;44.768;17.206;2022-11-20T06:18:36;1.55;;;1.08;;
36351;SDS011;22382;44.768;17.206;2022-11-20T06:21:08;2.05;;;1.23;;
36351;SDS011;22382;44.768;17.206;2022-11-20T06:23:36;1.70;;;1.02;;
36351;SDS011;22382;44.768;17.206;2022-11-20T06:26:05;1.90;;;1.10;;
36351;SDS011;22382;44.768;17.206;2022-11-20T06:28:33;2.22;;;0.95;;
36351;SDS011;22382;44.768;17.206;2022-11-20T06:31:01;2.65;;;0.82;;
36351;SDS011;22382;44.768;17.206;2022-11-20T06:33:29;1.77;;;1.00;;
36351;SDS011;22382;44.768;17.206;2022-11-20T06:35:57;2.38;;;0.80;;
36351;SDS011;22382;44.768;17.206;2022-11-20T06:38:35;0.68;;;0.50;;
36351;SDS011;22382;44.768;17.206;2022-11-20T06:41:04;3.40;;;0.82;;
36351;SDS011;22382;44.768;17.206;2022-11-20T06:43:33;1.10;;;0.70;;
36351;SDS011;22382;44.768;17.206;2022-11-20T06:46:00;1.67;;;0.85;;
36351;SDS011;22382;44.768;17.206;2022-11-20T06:48:27;3.00;;;0.80;;
36351;SDS011;22382;44.768;17.206;2022-11-20T06:50:55;1.95;;;0.90;;
36351;SDS011;22382;44.768;17.206;2022-11-20T06:53:24;3.92;;;0.63;;
36351;SDS011;22382;44.768;17.206;2022-11-20T06:55:52;3.35;;;0.90;;
36351;SDS011;22382;44.768;17.206;2022-11-20T06:58:21;1.60;;;0.88;;
36351;SDS011;22382;44.768;17.206;2022-11-20T07:00:48;4.65;;;1.40;;
36351;SDS011;22382;44.768;17.206;2022-11-20T07:03:15;3.05;;;1.33;;
36351;SDS011;22382;44.768;17.206;2022-11-20T07:05:42;3.83;;;1.30;;
36351;SDS011;22382;44.768;17.206;2022-11-20T07:08:11;1.00;;;0.82;;
36351;SDS011;22382;44.768;17.206;2022-11-20T07:10:39;1.17;;;0.73;;
36351;SDS011;22382;44.768;17.206;2022-11-20T07:13:06;2.05;;;0.82;;
36351;SDS011;22382;44.768;17.206;2022-11-20T07:15:33;1.35;;;0.80;;
36351;SDS011;22382;44.768;17.206;2022-11-20T07:18:00;0.82;;;0.63;;
36351;SDS011;22382;44.768;17.206;2022-11-20T07:20:27;1.10;;;0.80;;
36351;SDS011;22382;44.768;17.206;2022-11-20T07:22:55;2.28;;;0.90;;
36351;SDS011;22382;44.768;17.206;2022-11-20T07:25:26;1.92;;;0.90;;
36351;SDS011;22382;44.768;17.206;2022-11-20T07:27:57;3.78;;;1.10;;
36351;SDS011;22382;44.768;17.206;2022-11-20T07:30:26;4.10;;;1.65;;
36351;SDS011;22382;44.768;17.206;2022-11-20T07:32:54;1.67;;;1.00;;
36351;SDS011;22382;44.768;17.206;2022-11-20T07:35:22;2.17;;;1.10;;
36351;SDS011;22382;44.768;17.206;2022-11-20T07:37:52;2.38;;;1.67;;
36351;SDS011;22382;44.768;17.206;2022-11-20T07:40:19;4.40;;;2.00;;
36351;SDS011;22382;44.768;17.206;2022-11-20T07:42:47;3.92;;;1.90;;
36351;SDS011;22382;44.768;17.206;2022-11-20T07:45:15;3.28;;;1.90;;
36351;SDS011;22382;44.768;17.206;2022-11-20T07:47:43;12.55;;;3.22;;
36351;SDS011;22382;44.768;17.206;2022-11-20T07:50:10;37.78;;;6.70;;
36351;SDS011;22382;44.768;17.206;2022-11-20T07:52:38;13.40;;;3.95;;
36351;SDS011;22382;44.768;17.206;2022-11-20T07:55:05;8.45;;;3.45;;
36351;SDS011;22382;44.768;17.206;2022-11-20T07:57:33;6.55;;;3.58;;
36351;SDS011;22382;44.768;17.206;2022-11-20T08:00:00;9.05;;;2.50;;
36351;SDS011;22382;44.768;17.206;2022-11-20T08:02:27;6.13;;;2.50;;
36351;SDS011;22382;44.768;17.206;2022-11-20T08:04:54;7.03;;;1.92;;
36351;SDS011;22382;44.768;17.206;2022-11-20T08:07:21;17.98;;;3.47;;
36351;SDS011;22382;44.768;17.206;2022-11-20T08:09:48;10.93;;;3.03;;
36351;SDS011;22382;44.768;17.206;2022-11-20T08:12:18;10.32;;;2.50;;
36351;SDS011;22382;44.768;17.206;2022-11-20T08:15:05;6.45;;;2.42;;
36351;SDS011;22382;44.768;17.206;2022-11-20T08:17:38;13.40;;;2.67;;
36351;SDS011;22382;44.768;17.206;2022-11-20T08:20:05;3.78;;;1.50;;
36351;SDS011;22382;44.768;17.206;2022-11-20T08:22:32;1.63;;;0.98;;
36351;SDS011;22382;44.768;17.206;2022-11-20T08:24:59;1.40;;;0.80;;
36351;SDS011;22382;44.768;17.206;2022-11-20T08:27:26;2.75;;;1.25;;
36351;SDS011;22382;44.768;17.206;2022-11-20T08:29:53;4.10;;;1.60;;
36351;SDS011;22382;44.768;17.206;2022-11-20T08:32:20;1.75;;;1.10;;
36351;SDS011;22382;44.768;17.206;2022-11-20T08:34:47;2.67;;;1.65;;
36351;SDS011;22382;44.768;17.206;2022-11-20T08:37:14;1.65;;;1.10;;
36351;SDS011;22382;44.768;17.206;2022-11-20T08:39:41;3.47;;;1.80;;
36351;SDS011;22382;44.768;17.206;2022-11-20T08:42:08;2.33;;;1.55;;
36351;SDS011;22382;44.768;17.206;2022-11-20T08:44:35;2.15;;;1.30;;
36351;SDS011;22382;44.768;17.206;2022-11-20T08:47:02;1.15;;;0.90;;
36351;SDS011;22382;44.768;17.206;2022-11-20T08:49:29;1.70;;;1.25;;
36351;SDS011;22382;44.768;17.206;2022-11-20T08:51:56;3.33;;;1.83;;
36351;SDS011;22382;44.768;17.206;2022-11-20T08:54:23;3.05;;;1.90;;
36351;SDS011;22382;44.768;17.206;2022-11-20T08:56:50;4.00;;;2.30;;
36351;SDS011;22382;44.768;17.206;2022-11-20T08:59:17;3.05;;;2.05;;
36351;SDS011;22382;44.768;17.206;2022-11-20T09:02:04;3.67;;;2.13;;
36351;SDS011;22382;44.768;17.206;2022-11-20T09:04:31;2.40;;;1.42;;
36351;SDS011;22382;44.768;17.206;2022-11-20T09:06:59;2.50;;;1.45;;
36351;SDS011;22382;44.768;17.206;2022-11-20T09:09:27;2.55;;;1.20;;
36351;SDS011;22382;44.768;17.206;2022-11-20T09:11:54;2.55;;;1.52;;
36351;SDS011;22382;44.768;17.206;2022-11-20T09:14:21;2.22;;;1.25;;
36351;SDS011;22382;44.768;17.206;2022-11-20T09:16:50;2.08;;;1.10;;
36351;SDS011;22382;44.768;17.206;2022-11-20T09:19:17;2.03;;;1.30;;
36351;SDS011;22382;44.768;17.206;2022-11-20T09:22:04;1.92;;;1.10;;
36351;SDS011;22382;44.768;17.206;2022-11-20T09:24:31;1.67;;;1.00;;
36351;SDS011;22382;44.768;17.206;2022-11-20T09:27:00;2.55;;;1.08;;
36351;SDS011;22382;44.768;17.206;2022-11-20T09:29:28;3.20;;;1.30;;
36351;SDS011;22382;44.768;17.206;2022-11-20T09:31:55;2.00;;;1.27;;
36351;SDS011;22382;44.768;17.206;2022-11-20T09:34:22;1.33;;;0.75;;
36351;SDS011;22382;44.768;17.206;2022-11-20T09:36:49;1.50;;;1.00;;
36351;SDS011;22382;44.768;17.206;2022-11-20T09:39:16;3.13;;;1.70;;
36351;SDS011;22382;44.768;17.206;2022-11-20T09:44:55;4.50;;;1.95;;
36351;SDS011;22382;44.768;17.206;2022-11-20T09:51:04;3.35;;;1.77;;
36351;SDS011;22382;44.768;17.206;2022-11-20T09:55:56;2.08;;;1.40;;
36351;SDS011;22382;44.768;17.206;2022-11-20T10:01:10;2.40;;;2.00;;
36351;SDS011;22382;44.768;17.206;2022-11-20T10:09:51;2.78;;;1.75;;
36351;SDS011;22382;44.768;17.206;2022-11-20T10:15:33;2.15;;;1.27;;
36351;SDS011;22382;44.768;17.206;2022-11-20T10:26:44;1.40;;;0.95;;
36351;SDS011;22382;44.768;17.206;2022-11-20T10:29:29;1.40;;;0.93;;
36351;SDS011;22382;44.768;17.206;2022-11-20T10:32:02;1.70;;;1.10;;
36351;SDS011;22382;44.768;17.206;2022-11-20T10:34:58;1.70;;;1.20;;
36351;SDS011;22382;44.768;17.206;2022-11-20T10:48:27;2.17;;;1.50;;
36351;SDS011;22382;44.768;17.206;2022-11-20T10:56:25;2.20;;;1.08;;
36351;SDS011;22382;44.768;17.206;2022-11-20T11:01:58;1.05;;;0.77;;
36351;SDS011;22382;44.768;17.206;2022-11-20T11:07:13;1.15;;;0.80;;
36351;SDS011;22382;44.768;17.206;2022-11-20T11:09:46;1.30;;;0.80;;
36351;SDS011;22382;44.768;17.206;2022-11-20T11:12:16;1.75;;;1.00;;
36351;SDS011;22382;44.768;17.206;2022-11-20T11:14:50;1.17;;;0.63;;
36351;SDS011;22382;44.768;17.206;2022-11-20T11:17:22;1.02;;;0.70;;
36351;SDS011;22382;44.768;17.206;2022-11-20T11:20:00;1.17;;;0.77;;
36351;SDS011;22382;44.768;17.206;2022-11-20T11:25:25;1.23;;;0.63;;
36351;SDS011;22382;44.768;17.206;2022-11-20T11:27:55;1.92;;;1.10;;
36351;SDS011;22382;44.768;17.206;2022-11-20T11:30:26;1.58;;;0.82;;
36351;SDS011;22382;44.768;17.206;2022-11-20T11:33:06;10.30;;;5.03;;
36351;SDS011;22382;44.768;17.206;2022-11-20T11:35:39;5.32;;;3.00;;
36351;SDS011;22382;44.768;17.206;2022-11-20T11:38:17;1.38;;;1.02;;
36351;SDS011;22382;44.768;17.206;2022-11-20T11:40:49;6.13;;;2.25;;
36351;SDS011;22382;44.768;17.206;2022-11-20T11:43:20;4.47;;;3.20;;
36351;SDS011;22382;44.768;17.206;2022-11-20T11:48:56;5.25;;;2.85;;
36351;SDS011;22382;44.768;17.206;2022-11-20T11:51:26;3.97;;;2.70;;
36351;SDS011;22382;44.768;17.206;2022-11-20T11:54:16;3.40;;;2.60;;
36351;SDS011;22382;44.768;17.206;2022-11-20T11:56:50;3.35;;;2.35;;
36351;SDS011;22382;44.768;17.206;2022-11-20T12:00:00;5.43;;;2.60;;
36351;SDS011;22382;44.768;17.206;2022-11-20T12:05:19;6.57;;;4.03;;
36351;SDS011;22382;44.768;17.206;2022-11-20T12:10:21;9.45;;;5.82;;
36351;SDS011;22382;44.768;17.206;2022-11-20T12:12:53;6.03;;;3.50;;
36351;SDS011;22382;44.768;17.206;2022-11-20T12:15:30;3.55;;;2.47;;
36351;SDS011;22382;44.768;17.206;2022-11-20T12:18:00;4.60;;;2.80;;
36351;SDS011;22382;44.768;17.206;2022-11-20T12:20:32;4.35;;;2.63;;
36351;SDS011;22382;44.768;17.206;2022-11-20T12:23:09;4.20;;;3.03;;
36351;SDS011;22382;44.768;17.206;2022-11-20T12:25:41;3.63;;;2.55;;
36351;SDS011;22382;44.768;17.206;2022-11-20T12:28:35;3.92;;;2.25;;
36351;SDS011;22382;44.768;17.206;2022-11-20T12:31:21;4.93;;;3.20;;
36351;SDS011;22382;44.768;17.206;2022-11-20T12:33:54;5.28;;;3.70;;
36351;SDS011;22382;44.768;17.206;2022-11-20T12:39:48;5.32;;;3.35;;
36351;SDS011;22382;44.768;17.206;2022-11-20T12:42:31;4.63;;;3.30;;
36351;SDS011;22382;44.768;17.206;2022-11-20T12:56:34;7.55;;;6.03;;
36351;SDS011;22382;44.768;17.206;2022-11-20T13:08:11;9.35;;;6.05;;
36351;SDS011;22382;44.768;17.206;2022-11-20T13:21:44;8.27;;;5.25;;
36351;SDS011;22382;44.768;17.206;2022-11-20T13:26:46;8.50;;;4.97;;
36351;SDS011;22382;44.768;17.206;2022-11-20T13:29:17;7.03;;;4.65;;
36351;SDS011;22382;44.768;17.206;2022-11-20T13:31:46;8.45;;;5.25;;
36351;SDS011;22382;44.768;17.206;2022-11-20T13:34:24;8.05;;;5.43;;
36351;SDS011;22382;44.768;17.206;2022-11-20T13:36:53;10.65;;;7.75;;
36351;SDS011;22382;44.768;17.206;2022-11-20T13:41:57;12.77;;;9.32;;
36351;SDS011;22382;44.768;17.206;2022-11-20T13:44:38;11.93;;;9.27;;
36351;SDS011;22382;44.768;17.206;2022-11-20T13:47:25;11.73;;;8.82;;
36351;SDS011;22382;44.768;17.206;2022-11-20T13:49:53;7.57;;;4.80;;
36351;SDS011;22382;44.768;17.206;2022-11-20T13:55:31;7.97;;;5.25;;
36351;SDS011;22382;44.768;17.206;2022-11-20T13:58:22;7.78;;;4.85;;
36351;SDS011;22382;44.768;17.206;2022-11-20T14:01:00;8.05;;;5.38;;
36351;SDS011;22382;44.768;17.206;2022-11-20T14:03:34;8.35;;;4.90;;
36351;SDS011;22382;44.768;17.206;2022-11-20T14:06:25;7.50;;;5.32;;
36351;SDS011;22382;44.768;17.206;2022-11-20T14:08:55;8.45;;;5.93;;
36351;SDS011;22382;44.768;17.206;2022-11-20T14:11:26;12.20;;;8.85;;
36351;SDS011;22382;44.768;17.206;2022-11-20T14:16:34;13.43;;;8.73;;
36351;SDS011;22382;44.768;17.206;2022-11-20T14:22:07;10.13;;;6.60;;
36351;SDS011;22382;44.768;17.206;2022-11-20T14:24:40;8.40;;;4.95;;
36351;SDS011;22382;44.768;17.206;2022-11-20T14:27:14;9.25;;;6.03;;
36351;SDS011;22382;44.768;17.206;2022-11-20T14:29:46;13.75;;;9.10;;
36351;SDS011;22382;44.768;17.206;2022-11-20T14:32:17;14.40;;;8.75;;
36351;SDS011;22382;44.768;17.206;2022-11-20T14:34:47;11.50;;;7.78;;
36351;SDS011;22382;44.768;17.206;2022-11-20T14:37:23;13.93;;;8.55;;
36351;SDS011;22382;44.768;17.206;2022-11-20T14:39:53;13.02;;;8.60;;
36351;SDS011;22382;44.768;17.206;2022-11-20T14:42:23;14.00;;;8.43;;
36351;SDS011;22382;44.768;17.206;2022-11-20T14:44:52;12.45;;;8.27;;
36351;SDS011;22382;44.768;17.206;2022-11-20T14:47:26;9.90;;;6.20;;
36351;SDS011;22382;44.768;17.206;2022-11-20T14:49:56;13.45;;;8.15;;
36351;SDS011;22382;44.768;17.206;2022-11-20T14:52:26;14.68;;;9.93;;
36351;SDS011;22382;44.768;17.206;2022-11-20T14:54:55;18.98;;;12.50;;
36351;SDS011;22382;44.768;17.206;2022-11-20T14:57:32;18.48;;;11.68;;
36351;SDS011;22382;44.768;17.206;2022-11-20T15:02:44;18.52;;;10.80;;
36351;SDS011;22382;44.768;17.206;2022-11-20T15:05:13;10.57;;;7.07;;
36351;SDS011;22382;44.768;17.206;2022-11-20T15:07:42;16.77;;;11.00;;
36351;SDS011;22382;44.768;17.206;2022-11-20T15:10:13;18.20;;;11.38;;
36351;SDS011;22382;44.768;17.206;2022-11-20T15:18:02;20.98;;;13.05;;
36351;SDS011;22382;44.768;17.206;2022-11-20T15:20:33;18.23;;;11.18;;
36351;SDS011;22382;44.768;17.206;2022-11-20T15:23:07;22.40;;;14.10;;
36351;SDS011;22382;44.768;17.206;2022-11-20T15:25:39;23.20;;;14.10;;
36351;SDS011;22382;44.768;17.206;2022-11-20T15:28:20;19.42;;;12.48;;
36351;SDS011;22382;44.768;17.206;2022-11-20T15:30:58;21.25;;;13.30;;
36351;SDS011;22382;44.768;17.206;2022-11-20T15:33:26;18.42;;;12.43;;
36351;SDS011;22382;44.768;17.206;2022-11-20T15:35:53;17.80;;;12.23;;
36351;SDS011;22382;44.768;17.206;2022-11-20T15:38:19;21.15;;;12.75;;
36351;SDS011;22382;44.768;17.206;2022-11-20T15:40:47;15.38;;;10.48;;
36351;SDS011;22382;44.768;17.206;2022-11-20T15:43:14;21.67;;;13.18;;
36351;SDS011;22382;44.768;17.206;2022-11-20T15:45:53;23.80;;;15.32;;
36351;SDS011;22382;44.768;17.206;2022-11-20T15:48:29;28.33;;;17.80;;
36351;SDS011;22382;44.768;17.206;2022-11-20T15:53:36;24.08;;;13.00;;
36351;SDS011;22382;44.768;17.206;2022-11-20T15:56:04;23.15;;;14.23;;
36351;SDS011;22382;44.768;17.206;2022-11-20T15:58:31;22.30;;;13.73;;
36351;SDS011;22382;44.768;17.206;2022-11-20T16:00:57;20.15;;;13.63;;
36351;SDS011;22382;44.768;17.206;2022-11-20T16:03:25;27.33;;;16.70;;
36351;SDS011;22382;44.768;17.206;2022-11-20T16:05:52;21.75;;;15.07;;
36351;SDS011;22382;44.768;17.206;2022-11-20T16:08:19;22.73;;;14.43;;
36351;SDS011;22382;44.768;17.206;2022-11-20T16:10:46;20.80;;;13.30;;
36351;SDS011;22382;44.768;17.206;2022-11-20T16:13:13;18.58;;;11.65;;
36351;SDS011;22382;44.768;17.206;2022-11-20T16:16:02;20.45;;;13.73;;
36351;SDS011;22382;44.768;17.206;2022-11-20T16:18:31;15.45;;;9.82;;
36351;SDS011;22382;44.768;17.206;2022-11-20T16:20:59;16.27;;;9.15;;
36351;SDS011;22382;44.768;17.206;2022-11-20T16:23:26;12.68;;;7.75;;
36351;SDS011;22382;44.768;17.206;2022-11-20T16:25:53;11.45;;;6.68;;
36351;SDS011;22382;44.768;17.206;2022-11-20T16:28:20;7.10;;;4.72;;
36351;SDS011;22382;44.768;17.206;2022-11-20T16:30:47;7.28;;;4.20;;
36351;SDS011;22382;44.768;17.206;2022-11-20T16:33:15;6.55;;;4.53;;
36351;SDS011;22382;44.768;17.206;2022-11-20T16:35:45;6.55;;;4.38;;
36351;SDS011;22382;44.768;17.206;2022-11-20T16:38:12;6.05;;;3.53;;
36351;SDS011;22382;44.768;17.206;2022-11-20T16:40:39;6.47;;;4.50;;
36351;SDS011;22382;44.768;17.206;2022-11-20T16:43:10;8.70;;;5.95;;
36351;SDS011;22382;44.768;17.206;2022-11-20T16:48:10;12.23;;;5.00;;
36351;SDS011;22382;44.768;17.206;2022-11-20T16:50:46;7.32;;;4.90;;
36351;SDS011;22382;44.768;17.206;2022-11-20T16:53:15;6.40;;;4.13;;
36351;SDS011;22382;44.768;17.206;2022-11-20T16:55:43;8.40;;;5.03;;
36351;SDS011;22382;44.768;17.206;2022-11-20T16:58:10;8.18;;;4.85;;